createdAt,value
2022-08-18T00:02:17.742Z,99828.82
2022-08-18T00:04:49.206Z,99832.38
2022-08-18T00:07:27.784Z,99834.22
2022-08-18T00:09:54.769Z,99832.25
2022-08-18T00:12:33.642Z,99830.71
2022-08-18T00:15:04.436Z,99832.61
2022-08-18T00:17:34.633Z,99831.23
2022-08-18T00:20:01.786Z,99831.98
2022-08-18T00:22:28.841Z,99832.27
2022-08-18T00:24:57.487Z,99832.45
2022-08-18T00:27:29.813Z,99834.19
2022-08-18T00:29:58.747Z,99829.48
2022-08-18T00:32:34.470Z,99832.83
2022-08-18T00:35:06.879Z,99831.57
2022-08-18T00:37:33.898Z,99835.09
2022-08-18T00:40:00.918Z,99839.29
2022-08-18T00:42:31.040Z,99843.98
2022-08-18T00:45:03.481Z,99852.05
2022-08-18T00:47:41.421Z,99854.00
2022-08-18T00:50:37.801Z,99848.84
2022-08-18T00:53:36.085Z,99848.55
2022-08-18T00:56:10.930Z,99847.36
2022-08-18T00:59:03.059Z,99843.59
2022-08-18T01:01:31.610Z,99839.91
2022-08-18T01:04:21.744Z,99841.62
2022-08-18T01:06:52.697Z,99844.51
2022-08-18T01:09:19.538Z,99845.59
2022-08-18T01:11:46.490Z,99846.59
2022-08-18T01:14:16.111Z,99843.97
2022-08-18T01:17:02.195Z,99842.05
2022-08-18T01:19:47.683Z,99838.52
2022-08-18T01:22:20.864Z,99837.35
2022-08-18T01:25:06.466Z,99833.27
2022-08-18T01:27:34.443Z,99831.26
2022-08-18T01:30:09.980Z,99832.80
2022-08-18T01:32:37.297Z,99828.63
2022-08-18T01:35:04.951Z,99828.80
2022-08-18T01:37:31.874Z,99824.98
2022-08-18T01:41:11.177Z,99823.40
2022-08-18T01:42:46.864Z,99823.39
2022-08-18T01:45:14.845Z,99821.81
2022-08-18T01:47:47.504Z,99821.96
2022-08-18T01:50:25.533Z,99820.80
2022-08-18T01:52:53.790Z,99820.61
2022-08-18T01:55:21.277Z,99824.11
2022-08-18T01:57:48.297Z,99825.58
2022-08-18T02:00:16.717Z,99828.96
2022-08-18T02:02:43.867Z,99826.95
2022-08-18T02:05:23.518Z,99825.02
2022-08-18T02:07:54.511Z,99823.45
2022-08-18T02:10:21.711Z,99822.10
2022-08-18T02:12:48.659Z,99820.86
2022-08-18T02:15:15.824Z,99821.85
2022-08-18T02:17:44.211Z,99823.80
2022-08-18T02:20:14.919Z,99817.79
2022-08-18T02:22:42.196Z,99818.11
2022-08-18T02:25:10.180Z,99818.05
2022-08-18T02:31:14.738Z,99813.64
2022-08-18T02:33:46.921Z,99814.10
2022-08-18T02:36:20.727Z,99816.13
2022-08-18T02:38:56.621Z,99818.23
2022-08-18T02:41:29.383Z,99818.66
2022-08-18T02:43:58.274Z,99823.51
2022-08-18T02:46:30.234Z,99822.33
2022-08-18T02:48:59.974Z,99818.50
2022-08-18T02:51:27.103Z,99821.58
2022-08-18T02:53:54.439Z,99822.20
2022-08-18T02:56:40.303Z,99821.20
2022-08-18T02:59:20.075Z,99821.59
2022-08-18T03:01:49.168Z,99824.73
2022-08-18T03:04:22.897Z,99824.81
2022-08-18T03:06:52.714Z,99827.12
2022-08-18T03:09:19.866Z,99831.51
2022-08-18T03:11:46.917Z,99832.27
2022-08-18T03:14:14.713Z,99831.10
2022-08-18T03:16:52.849Z,99833.94
2022-08-18T03:19:21.392Z,99832.20
2022-08-18T03:21:48.642Z,99835.33
2022-08-18T03:27:56.705Z,99840.02
2022-08-18T03:30:24.069Z,99840.88
2022-08-18T03:32:51.125Z,99840.14
2022-08-18T03:35:18.391Z,99846.80
2022-08-18T03:37:45.386Z,99849.84
2022-08-18T03:40:12.650Z,99854.50
2022-08-18T03:42:39.755Z,99856.75
2022-08-18T03:45:17.685Z,99856.71
2022-08-18T03:47:46.178Z,99860.16
2022-08-18T03:50:14.168Z,99863.42
2022-08-18T03:52:41.952Z,99862.84
2022-08-18T03:55:09.763Z,99861.78
2022-08-18T03:57:39.296Z,99862.96
2022-08-18T04:00:07.143Z,99863.66
2022-08-18T04:02:34.184Z,99861.91
2022-08-18T04:05:01.336Z,99866.60
2022-08-18T04:07:32.341Z,99867.19
2022-08-18T04:09:59.332Z,99875.84
2022-08-18T04:12:26.599Z,99874.30
2022-08-18T04:14:53.659Z,99871.70
2022-08-18T04:17:25.314Z,99869.81
2022-08-18T04:19:55.940Z,99867.13
2022-08-18T04:22:23.007Z,99865.41
2022-08-18T04:24:50.826Z,99868.38
2022-08-18T04:27:18.964Z,99867.66
2022-08-18T04:29:46.326Z,99868.74
2022-08-18T04:32:13.379Z,99868.22
2022-08-18T04:34:40.531Z,99868.38
2022-08-18T04:37:09.906Z,99872.44
2022-08-18T04:39:37.827Z,99878.24
2022-08-18T04:42:06.310Z,99877.02
2022-08-18T04:44:34.582Z,99880.58
2022-08-18T04:47:02.055Z,99880.14
2022-08-18T04:49:30.530Z,99880.13
2022-08-18T04:52:34.205Z,99881.02
2022-08-18T04:55:04.328Z,99879.39
2022-08-18T04:57:35.103Z,99881.67
2022-08-18T05:00:03.052Z,99882.86
2022-08-18T05:02:33.244Z,99879.92
2022-08-18T05:05:03.508Z,99881.19
2022-08-18T05:07:31.110Z,99879.69
2022-08-18T05:09:58.267Z,99876.22
2022-08-18T05:12:25.905Z,99876.39
2022-08-18T05:14:54.109Z,99872.43
2022-08-18T05:17:21.060Z,99876.40
2022-08-18T05:19:49.818Z,99877.50
2022-08-18T05:22:24.243Z,99878.52
2022-08-18T05:24:55.810Z,99876.44
2022-08-18T05:27:22.771Z,99873.08
2022-08-18T05:29:51.702Z,99877.05
2022-08-18T05:32:42.573Z,99881.34
2022-08-18T05:35:12.486Z,99886.40
2022-08-18T05:38:08.321Z,99885.84
2022-08-18T05:40:35.473Z,99887.38
2022-08-18T05:43:02.612Z,99888.35
2022-08-18T05:45:29.673Z,99886.41
2022-08-18T05:48:02.377Z,99883.70
2022-08-18T05:50:30.078Z,99886.17
2022-08-18T05:53:12.504Z,99884.56
2022-08-18T05:55:59.846Z,99886.97
2022-08-18T05:58:32.956Z,99892.93
2022-08-18T06:01:24.661Z,99891.23
2022-08-18T06:04:16.388Z,99887.23
2022-08-18T06:06:47.464Z,99886.96
2022-08-18T06:09:44.485Z,99888.80
2022-08-18T06:12:47.122Z,99891.17
2022-08-18T06:15:14.751Z,99891.63
2022-08-18T06:18:15.980Z,99890.98
2022-08-18T06:20:53.882Z,99888.05
2022-08-18T06:23:28.193Z,99887.52
2022-08-18T06:26:09.689Z,99888.84
2022-08-18T06:29:06.541Z,99885.22
2022-08-18T06:31:36.550Z,99882.37
2022-08-18T06:34:14.347Z,99876.65
2022-08-18T06:37:20.511Z,99878.53
2022-08-18T06:39:52.534Z,99879.51
2022-08-18T06:42:30.708Z,99880.31
2022-08-18T06:45:01.216Z,99879.92
2022-08-18T06:47:53.237Z,99876.32
2022-08-18T06:50:44.778Z,99874.02
2022-08-18T06:53:26.737Z,99869.55
2022-08-18T06:55:54.030Z,99867.10
2022-08-18T06:58:30.713Z,99864.55
2022-08-18T07:01:02.949Z,99863.13
2022-08-18T07:03:39.644Z,99862.03
2022-08-18T07:06:11.628Z,99860.54
2022-08-18T07:08:43.458Z,99860.16
2022-08-18T07:11:25.657Z,99860.39
2022-08-18T07:14:21.638Z,99862.10
2022-08-18T07:16:58.739Z,99862.96
2022-08-18T07:19:29.395Z,99858.73
2022-08-18T07:22:05.656Z,99859.84
2022-08-18T07:24:34.580Z,99859.01
2022-08-18T07:27:03.130Z,99856.56
2022-08-18T07:29:32.861Z,99859.45
2022-08-18T07:32:21.169Z,99860.17
2022-08-18T07:34:55.204Z,99863.00
2022-08-18T07:37:51.199Z,99864.08
2022-08-18T07:40:31.593Z,99862.41
2022-08-18T07:43:48.095Z,99861.04
2022-08-18T07:46:23.643Z,99860.96
2022-08-18T07:48:52.270Z,99860.73
2022-08-18T07:51:23.894Z,99856.96
2022-08-18T07:54:54.289Z,99855.73
2022-08-18T07:58:00.924Z,99848.20
2022-08-18T08:01:00.213Z,99847.21
2022-08-18T08:03:48.881Z,99846.40
2022-08-18T08:07:00.567Z,99843.73
2022-08-18T08:09:56.302Z,99843.13
2022-08-18T08:12:32.364Z,99843.76
2022-08-18T08:15:17.953Z,99846.38
2022-08-18T08:18:36.718Z,99842.23
2022-08-18T08:21:11.006Z,99840.33
2022-08-18T08:24:01.232Z,99841.55
2022-08-18T08:26:47.685Z,99841.07
2022-08-18T08:29:41.413Z,99848.86
2022-08-18T08:32:16.147Z,99855.56
2022-08-18T08:34:57.535Z,99853.08
2022-08-18T08:37:30.576Z,99848.36
2022-08-18T08:40:38.225Z,99844.09
2022-08-18T08:43:16.146Z,99841.66
2022-08-18T08:46:00.589Z,99843.86
2022-08-18T08:48:29.812Z,99847.10
2022-08-18T08:51:01.619Z,99845.53
2022-08-18T08:53:33.204Z,99839.27
2022-08-18T08:56:04.155Z,99840.73
2022-08-18T08:58:37.237Z,99842.98
2022-08-18T09:01:04.286Z,99845.30
2022-08-18T09:03:45.778Z,99846.06
2022-08-18T09:06:35.256Z,99844.54
2022-08-18T09:09:18.180Z,99840.52
2022-08-18T09:12:12.163Z,99841.42
2022-08-18T09:15:05.528Z,99840.86
2022-08-18T09:17:41.798Z,99838.77
2022-08-18T09:20:40.698Z,99835.89
2022-08-18T09:23:28.846Z,99841.48
2022-08-18T09:25:58.631Z,99840.45
2022-08-18T09:28:28.570Z,99835.43
2022-08-18T09:31:08.859Z,99832.36
2022-08-18T09:33:49.395Z,99833.18
2022-08-18T09:36:30.096Z,99830.02
2022-08-18T09:39:23.228Z,99826.75
2022-08-18T09:41:55.795Z,99824.81
2022-08-18T09:44:48.863Z,99824.28
2022-08-18T09:47:22.398Z,99816.50
2022-08-18T09:50:26.755Z,99814.63
2022-08-18T09:52:57.803Z,99807.68
2022-08-18T09:55:24.970Z,99805.75
2022-08-18T09:58:15.265Z,99811.36
2022-08-18T10:00:44.258Z,99815.94
2022-08-18T10:03:13.734Z,99819.12
2022-08-18T10:05:41.736Z,99819.45
2022-08-18T10:08:09.031Z,99822.73
2022-08-18T10:11:00.400Z,99822.18
2022-08-18T10:13:51.213Z,99822.84
2022-08-18T10:16:23.892Z,99823.17
2022-08-18T10:19:00.261Z,99821.67
2022-08-18T10:21:31.487Z,99824.33
2022-08-18T10:24:29.930Z,99824.23
2022-08-18T10:26:54.530Z,99825.23
2022-08-18T10:29:32.284Z,99829.90
2022-08-18T10:32:00.063Z,99822.05
2022-08-18T10:34:52.458Z,99819.05
2022-08-18T10:37:44.935Z,99821.89
2022-08-18T10:40:14.749Z,99823.34
2022-08-18T10:42:45.321Z,99823.02
2022-08-18T10:45:31.015Z,99822.95
2022-08-18T10:48:19.304Z,99821.31
2022-08-18T10:50:58.880Z,99828.33
2022-08-18T10:53:43.969Z,99842.98
2022-08-18T10:56:34.404Z,99861.23
2022-08-18T10:59:19.895Z,99875.36
2022-08-18T11:02:27.742Z,99868.00
2022-08-18T11:04:58.934Z,99858.20
2022-08-18T11:07:30.916Z,99852.77
2022-08-18T11:10:28.063Z,99847.69
2022-08-18T11:13:13.341Z,99846.50
2022-08-18T11:15:53.230Z,99841.41
2022-08-18T11:18:30.079Z,99836.69
2022-08-18T11:21:41.825Z,99832.46
2022-08-18T11:24:14.072Z,99833.84
2022-08-18T11:26:56.153Z,99832.40
2022-08-18T11:29:24.732Z,99837.30
2022-08-18T11:31:54.915Z,99844.38
2022-08-18T11:34:39.099Z,99844.61
2022-08-18T11:37:51.848Z,99844.01
2022-08-18T11:43:13.699Z,99844.28
2022-08-18T11:45:48.236Z,99839.63
2022-08-18T11:48:15.147Z,99841.19
2022-08-18T11:53:44.256Z,99828.53
2022-08-18T11:56:14.457Z,99827.08
2022-08-18T11:58:50.460Z,99822.73
2022-08-18T12:01:55.087Z,99820.66
2022-08-18T12:04:26.342Z,99820.63
2022-08-18T12:06:56.562Z,99818.80
2022-08-18T12:12:28.557Z,99822.52
2022-08-18T12:15:22.618Z,99829.25
2022-08-18T12:17:53.183Z,99839.34
2022-08-18T12:20:21.147Z,99849.08
2022-08-18T12:22:49.729Z,99851.90
2022-08-18T12:25:25.436Z,99852.77
2022-08-18T12:27:54.184Z,99848.92
2022-08-18T12:30:21.540Z,99845.52
2022-08-18T12:32:49.931Z,99852.16
2022-08-18T12:35:21.966Z,99866.36
2022-08-18T12:38:12.987Z,99881.98
2022-08-18T12:40:37.191Z,99889.34
2022-08-18T12:43:05.864Z,99886.95
2022-08-18T12:45:32.959Z,99883.59
2022-08-18T12:50:54.711Z,99868.11
2022-08-18T12:53:30.230Z,99858.41
2022-08-18T12:56:22.925Z,99854.33
2022-08-18T12:58:53.125Z,99860.21
2022-08-18T13:01:20.307Z,99863.41
2022-08-18T13:04:11.388Z,99864.02
2022-08-18T13:06:46.948Z,99864.19
2022-08-18T13:09:42.944Z,99864.20
2022-08-18T13:12:16.294Z,99872.05
2022-08-18T13:14:43.902Z,99872.46
2022-08-18T13:17:29.684Z,99874.09
2022-08-18T13:20:00.613Z,99869.79
2022-08-18T13:22:32.844Z,99860.35
2022-08-18T13:25:03.828Z,99851.84
2022-08-18T13:27:35.270Z,99849.06
2022-08-18T13:30:29.452Z,99848.08
2022-08-18T13:32:58.823Z,99846.44
2022-08-18T13:35:30.010Z,99835.59
2022-08-18T13:38:14.317Z,99820.88
2022-08-18T13:40:48.811Z,99814.91
2022-08-18T13:43:17.390Z,99809.98
2022-08-18T13:45:52.687Z,99810.77
2022-08-18T13:48:21.313Z,99810.53
2022-08-18T13:50:52.748Z,99813.20
2022-08-18T13:53:20.127Z,99820.79
2022-08-18T13:55:47.586Z,99824.80
2022-08-18T13:58:20.253Z,99826.45
2022-08-18T14:01:01.857Z,99824.02
2022-08-18T14:03:47.674Z,99822.82
2022-08-18T14:06:22.536Z,99825.30
2022-08-18T14:08:52.003Z,99825.27
2022-08-18T14:11:19.148Z,99825.58
2022-08-18T14:13:47.117Z,99831.56
2022-08-18T14:16:19.067Z,99835.71
2022-08-18T14:19:10.437Z,99843.40
2022-08-18T14:22:01.929Z,99852.54
2022-08-18T14:24:49.315Z,99856.23
2022-08-18T14:27:18.084Z,99859.02
2022-08-18T14:29:48.015Z,99859.52
2022-08-18T14:32:18.059Z,99864.23
2022-08-18T14:34:50.836Z,99872.95
2022-08-18T14:37:18.343Z,99875.34
2022-08-18T14:39:48.087Z,99879.05
2022-08-18T14:42:32.793Z,99880.36
2022-08-18T14:45:26.697Z,99883.64
2022-08-18T14:47:59.955Z,99889.24
2022-08-18T14:50:26.932Z,99893.73
2022-08-18T14:52:53.878Z,99901.39
2022-08-18T14:55:20.930Z,99910.80
2022-08-18T14:57:50.263Z,99910.48
2022-08-18T15:00:20.884Z,99892.87
2022-08-18T15:02:49.446Z,99883.30
2022-08-18T15:05:19.502Z,99886.79
2022-08-18T15:07:51.429Z,99893.88
2022-08-18T15:10:19.950Z,99899.59
2022-08-18T15:12:51.647Z,99911.10
2022-08-18T15:15:19.139Z,99920.70
2022-08-18T15:17:52.558Z,99932.59
2022-08-18T15:20:28.886Z,99941.17
2022-08-18T15:23:24.760Z,99939.93
2022-08-18T15:25:55.112Z,99939.66
2022-08-18T15:28:25.314Z,99939.30
2022-08-18T15:31:16.553Z,99932.95
2022-08-18T15:33:39.464Z,99930.81
2022-08-18T15:36:09.941Z,99932.00
2022-08-18T15:38:37.355Z,99925.10
2022-08-18T15:41:06.259Z,99918.14
2022-08-18T15:43:45.908Z,99910.35
2022-08-18T15:46:16.601Z,99907.58
2022-08-18T15:48:43.817Z,99906.83
2022-08-18T15:51:12.008Z,99905.20
2022-08-18T15:53:44.563Z,99898.98
2022-08-18T15:56:21.026Z,99890.84
2022-08-18T15:58:49.124Z,99883.02
2022-08-18T16:01:30.606Z,99880.63
2022-08-18T16:04:01.491Z,99874.36
2022-08-18T16:06:32.499Z,99871.16
2022-08-18T16:08:59.840Z,99867.20
2022-08-18T16:11:29.143Z,99870.83
2022-08-18T16:13:59.014Z,99876.02
2022-08-18T16:16:29.123Z,99874.12
2022-08-18T16:19:08.033Z,99871.61
2022-08-18T16:21:38.664Z,99868.96
2022-08-18T16:24:05.821Z,99864.20
2022-08-18T16:26:32.873Z,99863.09
2022-08-18T16:29:01.799Z,99861.77
2022-08-18T16:31:29.642Z,99860.84
2022-08-18T16:33:57.410Z,99861.29
2022-08-18T16:36:25.826Z,99860.48
2022-08-18T16:38:53.771Z,99859.55
2022-08-18T16:41:23.075Z,99855.67
2022-08-18T16:43:50.024Z,99852.91
2022-08-18T16:46:21.513Z,99848.86
2022-08-18T16:48:49.599Z,99853.55
2022-08-18T16:51:17.561Z,99857.33
2022-08-18T16:53:46.322Z,99862.65
2022-08-18T16:56:18.899Z,99864.67
2022-08-18T16:59:05.453Z,99870.70
2022-08-18T17:01:53.533Z,99877.77
2022-08-18T17:04:22.834Z,99884.48
2022-08-18T17:06:50.322Z,99890.85
2022-08-18T17:09:18.296Z,99896.48
2022-08-18T17:11:51.255Z,99899.58
2022-08-18T17:14:19.867Z,99896.31
2022-08-18T17:16:48.490Z,99898.20
2022-08-18T17:19:15.448Z,99898.27
2022-08-18T17:21:42.349Z,99894.48
2022-08-18T17:24:10.527Z,99892.42
2022-08-18T17:27:05.912Z,99896.91
2022-08-18T17:29:53.569Z,99899.64
2022-08-18T17:32:25.122Z,99908.98
2022-08-18T17:35:04.679Z,99914.35
2022-08-18T17:37:31.757Z,99918.70
2022-08-18T17:40:05.020Z,99922.13
2022-08-18T17:42:33.781Z,99926.83
2022-08-18T17:45:21.632Z,99933.06
2022-08-18T17:48:11.804Z,99931.67
2022-08-18T17:51:09.095Z,99930.91
2022-08-18T17:53:38.973Z,99930.17
2022-08-18T17:56:35.086Z,99927.92
2022-08-18T17:59:07.417Z,99921.22
2022-08-18T18:02:24.554Z,99924.29
2022-08-18T18:04:59.545Z,99915.63
2022-08-18T18:07:32.910Z,99911.13
2022-08-18T18:10:03.607Z,99908.45
2022-08-18T18:12:31.825Z,99903.48
2022-08-18T18:14:59.385Z,99902.55
2022-08-18T18:17:30.320Z,99904.05
2022-08-18T18:20:22.148Z,99903.70
2022-08-18T18:22:49.098Z,99896.97
2022-08-18T18:25:34.563Z,99894.08
2022-08-18T18:28:01.841Z,99893.70
2022-08-18T18:30:32.990Z,99892.35
2022-08-18T18:33:02.898Z,99895.52
2022-08-18T18:35:54.403Z,99898.75
2022-08-18T18:38:30.292Z,99902.02
2022-08-18T18:41:20.690Z,99908.73
2022-08-18T18:43:49.182Z,99914.50
2022-08-18T18:46:27.494Z,99917.09
2022-08-18T18:49:19.330Z,99917.41
2022-08-18T18:51:47.612Z,99914.09
2022-08-18T18:54:33.085Z,99914.64
2022-08-18T18:57:00.356Z,99918.07
2022-08-18T18:59:46.396Z,99919.03
2022-08-18T19:02:41.568Z,99914.55
2022-08-18T19:05:11.386Z,99909.36
2022-08-18T19:07:48.983Z,99907.66
2022-08-18T19:10:37.734Z,99913.75
2022-08-18T19:13:32.458Z,99912.29
2022-08-18T19:16:06.500Z,99913.10
2022-08-18T19:18:41.285Z,99921.46
2022-08-18T19:22:04.396Z,99927.14
2022-08-18T19:24:03.306Z,99930.31
2022-08-18T19:26:39.976Z,99933.66
2022-08-18T19:29:14.108Z,99939.24
2022-08-18T19:31:49.918Z,99939.34
2022-08-18T19:34:31.204Z,99937.43
2022-08-18T19:37:13.822Z,99939.23
2022-08-18T19:39:54.739Z,99942.71
2022-08-18T19:42:35.284Z,99941.24
2022-08-18T19:45:17.000Z,99935.98
2022-08-18T19:48:07.156Z,99933.52
2022-08-18T19:50:35.808Z,99931.67
2022-08-18T19:53:22.880Z,99929.66
2022-08-18T19:56:14.541Z,99927.80
2022-08-18T19:59:15.596Z,99926.11
2022-08-18T20:01:55.376Z,99933.80
2022-08-18T20:04:33.722Z,99937.54
2022-08-18T20:07:28.527Z,99937.31
2022-08-18T20:10:01.448Z,99939.52
2022-08-18T20:13:06.151Z,99933.36
2022-08-18T20:15:33.139Z,99927.25
2022-08-18T20:18:03.077Z,99927.94
2022-08-18T20:20:32.010Z,99928.80
2022-08-18T20:22:59.553Z,99929.25
2022-08-18T20:25:45.251Z,99930.48
2022-08-18T20:28:13.015Z,99925.30
2022-08-18T20:30:40.046Z,99921.27
2022-08-18T20:33:19.809Z,99921.47
2022-08-18T20:36:10.716Z,99916.55
2022-08-18T20:38:37.660Z,99913.82
2022-08-18T20:41:23.352Z,99918.22
2022-08-18T20:43:59.307Z,99917.80
2022-08-18T20:46:43.417Z,99921.65
2022-08-18T20:49:42.857Z,99917.74
2022-08-18T20:52:35.859Z,99922.26
2022-08-18T20:55:21.208Z,99926.15
2022-08-18T20:57:51.277Z,99931.71
2022-08-18T21:00:27.341Z,99931.89
2022-08-18T21:02:59.265Z,99929.25
2022-08-18T21:05:34.461Z,99929.84
2022-08-18T21:08:13.403Z,99938.13
2022-08-18T21:10:57.483Z,99939.97
2022-08-18T21:13:31.250Z,99941.63
2022-08-18T21:15:58.707Z,99942.25
2022-08-18T21:18:26.471Z,99942.98
2022-08-18T21:20:55.446Z,99943.48
2022-08-18T21:23:27.127Z,99940.84
2022-08-18T21:25:57.970Z,99939.50
2022-08-18T21:28:26.145Z,99941.73
2022-08-18T21:31:30.813Z,99944.92
2022-08-18T21:34:10.220Z,99944.04
2022-08-18T21:36:39.926Z,99940.64
2022-08-18T21:39:09.600Z,99941.84
2022-08-18T21:41:46.521Z,99938.59
2022-08-18T21:44:44.696Z,99934.20
2022-08-18T21:47:38.062Z,99934.43
2022-08-18T21:50:16.240Z,99934.44
2022-08-18T21:53:12.440Z,99934.31
2022-08-18T21:55:42.563Z,99930.54
2022-08-18T21:58:18.521Z,99926.83
2022-08-18T22:01:07.571Z,99927.02
2022-08-18T22:03:35.153Z,99921.96
2022-08-18T22:06:21.120Z,99917.55
2022-08-18T22:09:28.517Z,99913.02
2022-08-18T22:12:42.367Z,99909.17
2022-08-18T22:15:27.647Z,99907.72
2022-08-18T22:17:57.670Z,99909.84
2022-08-18T22:20:36.900Z,99907.86
2022-08-18T22:23:28.630Z,99904.17
2022-08-18T22:26:12.608Z,99905.71
2022-08-18T22:28:57.654Z,99904.35
2022-08-18T22:31:26.038Z,99905.55
2022-08-18T22:33:55.857Z,99903.73
2022-08-18T22:36:27.773Z,99901.41
2022-08-18T22:38:54.769Z,99898.23
2022-08-18T22:41:21.816Z,99897.66
2022-08-18T22:43:54.723Z,99896.97
2022-08-18T22:46:24.915Z,99893.33
2022-08-18T22:48:52.865Z,99895.04
2022-08-18T22:51:21.871Z,99895.16
2022-08-18T22:53:48.842Z,99895.71
2022-08-18T22:56:15.792Z,99897.65
2022-08-18T22:58:49.805Z,99896.86
2022-08-18T23:01:17.877Z,99893.30
2022-08-18T23:03:44.913Z,99891.07
2022-08-18T23:06:11.983Z,99887.42
2022-08-18T23:08:54.425Z,99888.22
2022-08-18T23:11:24.414Z,99887.40
2022-08-18T23:13:51.365Z,99888.48
2022-08-18T23:16:31.302Z,99892.08
2022-08-18T23:19:03.086Z,99895.55
2022-08-18T23:21:34.466Z,99896.98
2022-08-18T23:24:07.217Z,99895.73
2022-08-18T23:26:34.570Z,99897.62
2022-08-18T23:29:02.371Z,99900.45
2022-08-18T23:31:30.614Z,99902.27
2022-08-18T23:33:59.777Z,99902.05
2022-08-18T23:36:30.656Z,99904.30
2022-08-18T23:38:57.704Z,99902.10
2022-08-18T23:41:24.651Z,99897.86
2022-08-18T23:43:51.594Z,99897.88
2022-08-18T23:46:22.573Z,99901.63
2022-08-18T23:48:50.878Z,99905.27
2022-08-18T23:51:29.651Z,99905.66
2022-08-18T23:53:59.211Z,99904.56
2022-08-18T23:56:31.124Z,99904.94
2022-08-18T23:58:58.376Z,99905.39
